RUNWAY INFORMATION
Runway Length Width Elevation Displaced
Threshold
Heading | Runway Length Width Elevation Displaced
Threshold
Heading
08 7638 ft 150 ft 21 ft 400 ft 90 | 26 7638 ft 150 ft 14 ft 340 ft 270

 AIRPORT FREQUENCIES
Type APP Name APP Frequency 118.1 MHZ
Type RDO Name RDO Frequency 342.5 MHZ
Type TWR Name TWR Frequency 118.1 MHZ

 AIRPORT NEAR NAVIGATION AIDS
Type VOR-DME Name Rarotonga Frequency 113500 KHZ
Type NDB Name Rarotonga Frequency 352 KHZ

 METAR AND TAF INFORMATION
METAR FOR NCRG
ADDS - METARS form results

(1151 UTC 23 January 2021)
Data provider http://aviationweather.gov/metar/data/
 
METAR text: NCRG 231130Z AUTO 05009KT 9999 SCT026/// SCT032/// 28/23 Q1013
Conditions at: NCRG observed 1130 UTC 23 January 2021
Temperature: 28.0°C (82°F)
Dewpoint: 23.0°C (73°F) [RH = 74%]
Pressure (altimeter): 29.91 inches Hg (1013.0 mb)
Winds: from the NE (50 degrees) at 10 MPH (9 knots; 4.6 m/s)
Visibility: 6 or more miles (10+ km)
Ceiling: at least 12,000 feet AGL
Clouds: scattered clouds at 2600 feet AGL
scattered clouds at 3200 feet AGL
Weather: no significant weather observed at this time

METAR text: NCRG 231100Z AUTO 06010KT 9999 FEW028/// SCT035/// 28/23 Q1013
Conditions at: NCRG observed 1100 UTC 23 January 2021
Temperature: 28.0°C (82°F)
Dewpoint: 23.0°C (73°F) [RH = 74%]
Pressure (altimeter): 29.91 inches Hg (1013.0 mb)
Winds: from the ENE (60 degrees) at 12 MPH (10 knots; 5.1 m/s)
Visibility: 6 or more miles (10+ km)
Ceiling: at least 12,000 feet AGL
Clouds: few clouds at 2800 feet AGL
scattered clouds at 3500 feet AGL
Weather: no significant weather observed at this time

Forecast for: NCRG
Text: TAF NCRG 231109Z 2312/2412 06010KT 9999 SCT022 BKN040
Forecast period: 1200 UTC 23 January 2021 to 1200 UTC 24 January 2021
Forecast type: FROM: standard forecast or significant change
Winds: from the ENE (60 degrees) at 12 MPH (10 knots; 5.1 m/s)
Visibility: 6 or more miles (10+ km)
Ceiling: 4000 feet AGL
Clouds: scattered clouds at 2200 feet AGL
broken clouds at 4000 feet AGL
Weather: no significant weather forecast for this period
Text: PROB30
Forecast period: 1200 to 1700 UTC 23 January 2021
Forecast type: TEMPORARY: The following changes expected for less than half the time period
Visibility: 3 miles (5 km)
Ceiling: 1500 feet AGL
Clouds: broken clouds at 1500 feet AGL
Weather: SHRA  (rain showers)
Text: TEMPO 2312/2317 5000 SHRA BKN015
Forecast period: 0200 to 0800 UTC 24 January 2021
Forecast type: TEMPORARY: The following changes expected for less than half the time period
Visibility: 3 miles (5 km)
Ceiling: 1500 feet AGL
Clouds: broken clouds at 1500 feet AGL
Weather: SHRA  (rain showers)



© 2013 - 2021, FlightSimLog.org - Powered by Virtual Airlines Manager